Time;durP1;ratioP1;P1;durP2;ratioP2;P2;SDS_P1;SDS_P2;PMS_P1;PMS_P2;Temp;Humidity;BMP_temperature;BMP_pressure;BME280_temperature;BME280_humidity;BME280_pressure;Samples;Min_cycle;Max_cycle;Signal;HPM_P1;HPM_P2
2022/07/08 00:00:27;;;;;;;12.07;3.08;;;;;;;13.58;100.00;103076.72;5261163;28;20032;-70
2022/07/08 00:02:57;;;;;;;12.35;4.10;;;;;;;13.56;100.00;103077.88;5254582;28;20390;-71
2022/07/08 00:05:28;;;;;;;12.00;2.90;;;;;;;13.55;100.00;103070.72;5255322;28;20180;-70
2022/07/08 00:07:59;;;;;;;16.75;3.15;;;;;;;13.53;100.00;103070.03;5248031;28;20498;-70
2022/07/08 00:10:29;;;;;;;13.77;3.20;;;;;;;13.51;100.00;103069.31;5250223;28;20036;-70
2022/07/08 00:12:59;;;;;;;14.75;3.47;;;;;;;13.49;100.00;103077.50;5268157;28;20070;-70
2022/07/08 00:15:30;;;;;;;9.63;3.70;;;;;;;13.47;100.00;103071.41;5265534;28;20036;-71
2022/07/08 00:18:00;;;;;;;14.65;3.42;;;;;;;13.41;100.00;103069.25;5247320;28;20073;-70
2022/07/08 00:20:31;;;;;;;10.10;2.72;;;;;;;13.34;100.00;103074.28;5253959;28;20051;-70
2022/07/08 00:23:01;;;;;;;14.52;4.25;;;;;;;13.27;100.00;103074.94;5247545;28;20060;-71
2022/07/08 00:25:32;;;;;;;9.85;2.92;;;;;;;13.16;100.00;103070.44;5260660;28;20035;-70
2022/07/08 00:28:03;;;;;;;14.23;4.00;;;;;;;13.06;100.00;103064.09;5247489;28;20024;-71
2022/07/08 00:30:33;;;;;;;10.88;3.55;;;;;;;12.97;100.00;103073.81;5254217;28;20074;-70
2022/07/08 00:33:04;;;;;;;10.95;3.15;;;;;;;12.85;100.00;103069.41;5254199;28;20056;-71
2022/07/08 00:35:34;;;;;;;11.02;3.30;;;;;;;12.72;100.00;103076.81;5247302;28;20486;-71
2022/07/08 00:38:05;;;;;;;10.20;3.67;;;;;;;12.58;100.00;103076.09;5246970;28;20119;-70
2022/07/08 00:40:35;;;;;;;12.15;3.33;;;;;;;12.47;100.00;103083.34;5256299;28;20054;-70
2022/07/08 00:43:05;;;;;;;13.52;3.40;;;;;;;12.38;100.00;103082.25;5254475;28;20028;-70
2022/07/08 00:45:36;;;;;;;10.30;3.58;;;;;;;12.32;100.00;103083.59;5257638;28;20075;-70
2022/07/08 00:48:07;;;;;;;7.63;3.28;;;;;;;12.28;100.00;103086.66;5249132;28;20028;-70
2022/07/08 00:50:38;;;;;;;13.30;3.47;;;;;;;12.19;100.00;103085.56;5258768;28;20036;-70
2022/07/08 00:53:09;;;;;;;7.65;3.50;;;;;;;12.11;100.00;103082.66;5267795;28;20385;-70
2022/07/08 00:55:40;;;;;;;11.27;3.80;;;;;;;12.02;100.00;103084.22;5254287;28;20031;-70
2022/07/08 00:58:12;;;;;;;10.90;4.38;;;;;;;11.96;100.00;103081.16;5253874;28;20032;-70
2022/07/08 01:00:42;;;;;;;12.00;3.50;;;;;;;11.90;100.00;103087.91;5254754;28;20026;-70
2022/07/08 01:03:13;;;;;;;14.88;3.53;;;;;;;11.81;100.00;103081.34;5249088;28;20449;-71
2022/07/08 01:05:43;;;;;;;23.08;4.40;;;;;;;11.73;100.00;103077.53;5259221;28;20057;-70
2022/07/08 01:08:14;;;;;;;12.65;3.47;;;;;;;11.63;100.00;103086.31;5257145;28;20104;-70
2022/07/08 01:10:45;;;;;;;12.02;4.15;;;;;;;11.54;100.00;103084.34;5247140;28;20016;-71
2022/07/08 01:13:17;;;;;;;14.80;4.28;;;;;;;11.43;100.00;103081.63;5258214;28;20024;-70
2022/07/08 01:15:48;;;;;;;17.55;4.47;;;;;;;11.36;100.00;103097.38;5267148;28;20030;-70
2022/07/08 01:18:34;;;;;;;15.25;3.80;;;;;;;11.29;100.00;103089.88;5254217;28;20474;-70
2022/07/08 01:21:05;;;;;;;8.52;3.70;;;;;;;11.23;100.00;103088.53;5247778;28;20025;-70
2022/07/08 01:23:37;;;;;;;14.48;4.03;;;;;;;11.18;100.00;103082.63;5263373;28;20024;-70
2022/07/08 01:26:10;;;;;;;9.10;3.97;;;;;;;11.11;100.00;103090.31;5266862;28;20750;-70
2022/07/08 01:28:43;;;;;;;14.20;4.60;;;;;;;11.05;100.00;103085.41;5266406;28;20152;-70
2022/07/08 01:31:14;;;;;;;13.48;4.97;;;;;;;10.97;100.00;103090.47;5254493;28;20031;-70
2022/07/08 01:33:44;;;;;;;13.73;4.45;;;;;;;10.89;100.00;103092.88;5259824;28;20025;-71
2022/07/08 01:36:14;;;;;;;13.65;4.88;;;;;;;10.80;100.00;103102.47;5245619;28;20028;-70
2022/07/08 01:38:45;;;;;;;17.33;5.30;;;;;;;10.75;100.00;103101.09;5253654;28;20107;-70
2022/07/08 01:41:16;;;;;;;11.50;4.70;;;;;;;10.70;100.00;103098.75;5253415;28;20036;-70
2022/07/08 01:43:47;;;;;;;13.63;5.03;;;;;;;10.65;100.00;103100.06;5267027;28;20028;-70
2022/07/08 01:46:17;;;;;;;13.63;5.88;;;;;;;10.58;100.00;103095.13;5252611;28;20025;-70
2022/07/08 01:48:48;;;;;;;20.90;4.90;;;;;;;10.53;100.00;103094.59;5245878;28;20025;-70
2022/07/08 01:51:19;;;;;;;15.80;5.55;;;;;;;10.47;100.00;103081.63;5250283;28;20587;-70
2022/07/08 01:53:49;;;;;;;15.20;5.03;;;;;;;10.43;100.00;103090.88;5267056;28;20353;-70
2022/07/08 01:56:20;;;;;;;16.50;5.25;;;;;;;10.38;100.00;103090.34;5253353;28;20371;-70
2022/07/08 01:58:51;;;;;;;15.02;4.85;;;;;;;10.31;100.00;103092.63;5244675;28;20099;-70
2022/07/08 02:01:22;;;;;;;14.00;4.93;;;;;;;10.25;100.00;103082.34;5245504;28;20554;-70
2022/07/08 02:03:52;;;;;;;19.42;5.88;;;;;;;10.20;100.00;103083.59;5232135;28;20028;-70
2022/07/08 02:06:23;;;;;;;12.68;5.00;;;;;;;10.17;100.00;103079.28;5254149;28;20026;-70
2022/07/08 02:08:54;;;;;;;13.98;4.82;;;;;;;10.13;100.00;103083.16;5253100;28;20028;-70
2022/07/08 02:14:15;;;;;;;19.15;4.57;;;;;;;10.07;100.00;103084.44;5265273;28;20032;-70
2022/07/08 02:16:45;;;;;;;13.80;5.15;;;;;;;10.04;100.00;103078.44;5265819;28;20019;-70
2022/07/08 02:19:16;;;;;;;19.48;5.35;;;;;;;10.01;100.00;103084.03;5245499;28;20030;-70
2022/07/08 02:21:46;;;;;;;13.88;5.15;;;;;;;9.97;100.00;103082.53;5251572;28;20074;-70
2022/07/08 02:24:17;;;;;;;16.15;5.68;;;;;;;9.93;100.00;103083.69;5245021;28;20396;-70
2022/07/08 02:26:48;;;;;;;13.43;5.35;;;;;;;9.86;100.00;103086.81;5245433;28;20490;-70
2022/07/08 02:29:18;;;;;;;13.82;5.75;;;;;;;9.82;100.00;103090.69;5245375;28;20112;-70
2022/07/08 02:31:49;;;;;;;14.73;5.80;;;;;;;9.82;100.00;103084.47;5245381;28;20505;-71
2022/07/08 02:34:19;;;;;;;14.95;5.05;;;;;;;9.80;100.00;103089.09;5245231;28;20043;-70
2022/07/08 02:36:50;;;;;;;17.65;4.68;;;;;;;9.75;100.00;103089.41;5258813;28;20031;-70
2022/07/08 02:39:21;;;;;;;14.65;5.88;;;;;;;9.70;100.00;103090.69;5258491;28;20390;-70
2022/07/08 02:41:52;;;;;;;20.30;5.47;;;;;;;9.64;100.00;103096.44;5272410;28;20115;-70
2022/07/08 02:44:22;;;;;;;12.32;5.10;;;;;;;9.59;100.00;103100.31;5258540;28;20020;-70
2022/07/08 02:46:53;;;;;;;17.77;5.28;;;;;;;9.56;100.00;103105.88;5252013;28;20043;-70
2022/07/08 02:49:23;;;;;;;12.10;5.57;;;;;;;9.54;100.00;103105.13;5267143;28;20028;-70
2022/07/08 02:51:54;;;;;;;17.60;6.00;;;;;;;9.56;100.00;103103.19;5273068;28;20020;-70
2022/07/08 02:54:24;;;;;;;14.82;5.32;;;;;;;9.56;100.00;103102.34;5256244;28;20024;-70
2022/07/08 02:56:55;;;;;;;10.32;5.10;;;;;;;9.53;100.00;103098.03;5262114;28;20107;-70
2022/07/08 02:59:25;;;;;;;12.25;5.30;;;;;;;9.49;100.00;103093.03;5268533;28;20033;-70
2022/07/08 03:01:56;;;;;;;10.90;5.57;;;;;;;9.45;100.00;103089.69;5251780;28;20032;-70
2022/07/08 03:04:26;;;;;;;11.70;5.25;;;;;;;9.42;100.00;103094.38;5244284;28;20020;-70
2022/07/08 03:06:57;;;;;;;11.80;5.95;;;;;;;9.37;100.00;103092.00;5259637;28;20513;-70
2022/07/08 03:09:27;;;;;;;17.55;5.78;;;;;;;9.33;100.00;103093.19;5252082;28;20512;-70
2022/07/08 03:11:58;;;;;;;16.70;5.85;;;;;;;9.30;100.00;103093.41;5265558;28;20078;-70
2022/07/08 03:14:28;;;;;;;17.95;6.28;;;;;;;9.23;100.00;103092.06;5251327;28;20067;-70
2022/07/08 03:16:59;;;;;;;15.38;5.30;;;;;;;9.20;100.00;103092.31;5267592;28;20526;-70
2022/07/08 03:19:30;;;;;;;14.18;5.78;;;;;;;9.16;100.00;103097.00;5263807;28;20115;-70
2022/07/08 03:22:00;;;;;;;13.05;5.75;;;;;;;9.13;100.00;103091.84;5257792;28;20032;-69
2022/07/08 03:24:31;;;;;;;18.65;6.32;;;;;;;9.10;100.00;103085.84;5262587;28;20469;-70
2022/07/08 03:27:01;;;;;;;13.73;6.82;;;;;;;9.07;100.00;103090.44;5267581;28;20020;-71
2022/07/08 03:29:32;;;;;;;14.60;5.43;;;;;;;9.03;100.00;103093.41;5264238;28;20039;-70
2022/07/08 03:32:03;;;;;;;15.80;5.45;;;;;;;8.97;100.00;103091.13;5253371;28;20024;-70
2022/07/08 03:34:33;;;;;;;12.80;5.25;;;;;;;8.91;100.00;103095.09;5264793;28;20530;-70
2022/07/08 03:37:04;;;;;;;14.35;4.82;;;;;;;8.87;100.00;103082.84;5265331;28;20055;-70
2022/07/08 03:39:35;;;;;;;12.90;5.43;;;;;;;8.85;100.00;103087.47;5265919;28;20032;-70
2022/07/08 03:42:06;;;;;;;22.23;6.20;;;;;;;8.84;100.00;103093.78;5272604;28;20039;-70
2022/07/08 03:44:36;;;;;;;19.23;7.10;;;;;;;8.84;100.00;103099.13;5272329;28;20475;-70
2022/07/08 03:47:07;;;;;;;16.60;6.53;;;;;;;8.85;100.00;103111.56;5261642;28;20107;-70
2022/07/08 03:49:37;;;;;;;17.27;5.30;;;;;;;8.86;100.00;103112.41;5251210;28;20021;-70
2022/07/08 03:52:08;;;;;;;19.17;5.70;;;;;;;8.87;100.00;103114.13;5260519;28;20054;-70
2022/07/08 03:54:38;;;;;;;16.65;6.35;;;;;;;8.87;100.00;103106.09;5268830;28;20024;-70
2022/07/08 03:57:09;;;;;;;12.63;5.45;;;;;;;8.84;100.00;103101.81;5261133;28;20039;-70
2022/07/08 03:59:39;;;;;;;16.73;6.25;;;;;;;8.81;100.00;103108.22;5268833;28;20020;-70
2022/07/08 04:02:10;;;;;;;14.85;6.85;;;;;;;8.79;100.00;103109.28;5267587;28;20473;-70
2022/07/08 04:04:40;;;;;;;22.40;7.32;;;;;;;8.80;100.00;103116.34;5235470;28;20259;-70
2022/07/08 04:07:11;;;;;;;19.75;7.15;;;;;;;8.82;100.00;103111.75;5261661;28;20516;-70
2022/07/08 04:09:41;;;;;;;12.63;6.50;;;;;;;8.81;100.00;103120.72;5248265;28;20024;-70
2022/07/08 04:12:12;;;;;;;14.10;5.70;;;;;;;8.77;100.00;103128.09;5250947;28;20024;-70
2022/07/08 04:14:42;;;;;;;14.65;6.15;;;;;;;8.73;100.00;103137.28;5268335;28;20024;-70
2022/07/08 04:17:13;;;;;;;12.05;6.38;;;;;;;8.72;100.00;103132.88;5250913;28;20031;-70
2022/07/08 04:19:43;;;;;;;12.02;6.13;;;;;;;8.73;100.00;103133.75;5247851;28;20056;-71
2022/07/08 04:22:14;;;;;;;15.65;6.40;;;;;;;8.73;100.00;103133.75;5254009;28;20028;-70
2022/07/08 04:24:44;;;;;;;15.63;5.75;;;;;;;8.77;100.00;103132.59;5247582;28;20032;-70
2022/07/08 04:27:15;;;;;;;11.30;6.65;;;;;;;8.80;100.00;103133.25;5253962;28;20027;-70
2022/07/08 04:29:45;;;;;;;19.67;6.13;;;;;;;8.84;100.00;103135.75;5268496;28;20377;-70
2022/07/08 04:32:16;;;;;;;16.50;6.97;;;;;;;8.88;100.00;103137.25;5260857;28;20055;-70
2022/07/08 04:34:47;;;;;;;12.20;6.53;;;;;;;8.95;100.00;103134.09;5260694;28;20078;-70
2022/07/08 04:37:18;;;;;;;17.02;7.22;;;;;;;9.02;100.00;103129.19;5256758;28;20091;-70
2022/07/08 04:39:49;;;;;;;16.73;6.47;;;;;;;9.09;100.00;103130.50;5264519;28;20039;-70
2022/07/08 04:42:19;;;;;;;18.38;6.90;;;;;;;9.17;100.00;103135.34;5258092;28;20392;-70
2022/07/08 04:44:50;;;;;;;19.35;8.70;;;;;;;9.25;100.00;103130.34;5254516;28;20047;-70
2022/07/08 04:47:20;;;;;;;14.32;7.30;;;;;;;9.33;100.00;103128.00;5256176;28;20024;-70
2022/07/08 04:49:51;;;;;;;17.42;7.72;;;;;;;9.40;100.00;103125.78;5266969;28;20024;-70
2022/07/08 04:52:21;;;;;;;27.10;9.18;;;;;;;9.49;100.00;103125.19;5254099;28;20543;-70
2022/07/08 04:54:52;;;;;;;31.05;9.10;;;;;;;9.57;100.00;103129.03;5266508;28;20028;-70
2022/07/08 04:57:22;;;;;;;25.60;8.95;;;;;;;9.65;100.00;103133.88;5260413;28;20483;-71
2022/07/08 04:59:53;;;;;;;20.55;8.77;;;;;;;9.72;100.00;103137.00;5246996;28;20048;-70
2022/07/08 05:02:24;;;;;;;26.30;9.15;;;;;;;9.83;100.00;103131.75;5244414;28;20064;-71
2022/07/08 05:04:54;;;;;;;28.65;9.43;;;;;;;9.95;100.00;103128.22;5244335;28;20397;-70
2022/07/08 05:07:25;;;;;;;30.67;9.88;;;;;;;10.08;100.00;103137.13;5267782;28;20028;-71
2022/07/08 05:09:55;;;;;;;23.38;10.25;;;;;;;10.18;100.00;103139.16;5257239;28;20040;-71
2022/07/08 05:12:26;;;;;;;27.15;10.40;;;;;;;10.29;100.00;103147.34;5246556;28;20497;-70
2022/07/08 05:14:56;;;;;;;24.20;10.10;;;;;;;10.42;100.00;103145.50;5246396;28;20027;-70
2022/07/08 05:17:27;;;;;;;30.85;10.25;;;;;;;10.57;100.00;103152.47;5246235;28;20547;-71
2022/07/08 05:19:57;;;;;;;25.42;9.30;;;;;;;10.71;100.00;103140.75;5246545;28;20032;-70
2022/07/08 05:22:28;;;;;;;30.48;9.25;;;;;;;10.85;100.00;103145.13;5253614;28;20099;-70
2022/07/08 05:24:58;;;;;;;30.15;9.82;;;;;;;10.98;100.00;103145.91;5266131;28;20500;-70
2022/07/08 05:27:29;;;;;;;22.63;9.00;;;;;;;11.09;100.00;103142.41;5246237;28;20025;-71
2022/07/08 05:29:59;;;;;;;27.55;9.43;;;;;;;11.23;100.00;103152.16;5246149;28;20020;-70
2022/07/08 05:32:30;;;;;;;31.38;9.65;;;;;;;11.37;100.00;103143.91;5256057;28;20149;-70
2022/07/08 05:35:03;;;;;;;25.65;9.77;;;;;;;11.50;100.00;103144.72;5262044;28;20012;-70
2022/07/08 05:37:37;;;;;;;17.13;8.88;;;;;;;11.67;100.00;103151.47;5257680;28;20028;-70
2022/07/08 05:40:10;;;;;;;22.73;9.15;;;;;;;11.83;100.00;103160.09;5260841;28;20521;-70
2022/07/08 05:42:42;;;;;;;22.65;8.73;;;;;;;11.95;100.00;103170.88;5259896;28;20059;-70
2022/07/08 05:45:13;;;;;;;25.63;10.73;;;;;;;12.11;100.00;103172.28;5266852;28;20016;-70
2022/07/08 05:47:44;;;;;;;20.95;8.90;;;;;;;12.27;100.00;103180.00;5251720;28;20036;-71
2022/07/08 05:50:14;;;;;;;20.10;8.30;;;;;;;12.42;100.00;103167.19;5246049;28;20053;-71
2022/07/08 05:52:45;;;;;;;16.52;8.18;;;;;;;12.58;100.00;103173.03;5261978;28;20042;-70
2022/07/08 05:55:15;;;;;;;21.17;7.72;;;;;;;12.77;100.00;103175.13;5262380;28;20390;-71
2022/07/08 05:57:46;;;;;;;19.15;6.65;;;;;;;12.96;100.00;103178.03;5246168;28;20024;-71
2022/07/08 06:00:17;;;;;;;15.27;6.50;;;;;;;13.39;100.00;103176.34;5257341;28;20081;-71
2022/07/08 06:02:49;;;;;;;41.92;8.55;;;;;;;13.54;100.00;103185.00;5255046;28;20020;-71
2022/07/08 06:05:20;;;;;;;14.57;4.68;;;;;;;14.14;100.00;103178.03;5251348;28;20023;-71
2022/07/08 06:07:50;;;;;;;16.15;4.60;;;;;;;15.20;100.00;103181.16;5232574;28;20481;-71
2022/07/08 06:10:21;;;;;;;17.95;3.67;;;;;;;16.01;100.00;103178.19;5259386;28;20027;-71
2022/07/08 06:12:53;;;;;;;13.23;3.80;;;;;;;16.99;100.00;103177.69;5245534;28;20021;-71
2022/07/08 06:15:24;;;;;;;17.15;3.70;;;;;;;17.82;100.00;103185.63;5244661;28;20033;-71
2022/07/08 06:17:54;;;;;;;14.93;3.08;;;;;;;18.09;100.00;103176.50;5255633;28;20028;-71
2022/07/08 06:20:25;;;;;;;15.15;2.95;;;;;;;18.34;100.00;103177.50;5248844;28;20028;-71
2022/07/08 06:22:55;;;;;;;18.88;3.45;;;;;;;19.10;100.00;103184.81;5244271;28;20085;-71
2022/07/08 06:25:26;;;;;;;13.65;3.13;;;;;;;19.41;100.00;103179.59;5258756;28;20024;-71
2022/07/08 06:27:56;;;;;;;13.10;3.20;;;;;;;20.13;100.00;103182.50;5244189;28;20087;-72
2022/07/08 06:30:27;;;;;;;21.75;3.60;;;;;;;20.32;100.00;103190.31;5245313;28;20085;-71
2022/07/08 06:32:59;;;;;;;10.02;2.60;;;;;;;20.73;100.00;103192.91;5246152;28;20035;-71
2022/07/08 06:35:30;;;;;;;12.75;3.17;;;;;;;21.32;100.00;103187.00;5266101;28;20024;-71
2022/07/08 06:38:01;;;;;;;10.85;2.80;;;;;;;21.95;100.00;103194.03;5266143;28;20093;-71
2022/07/08 06:40:31;;;;;;;22.48;2.85;;;;;;;22.46;100.00;103194.19;5266447;28;20022;-72
2022/07/08 06:43:02;;;;;;;13.07;2.33;;;;;;;22.88;100.00;103192.63;5266041;28;20114;-72
2022/07/08 06:45:32;;;;;;;11.05;2.00;;;;;;;23.17;93.26;103194.50;5265925;28;20016;-72
2022/07/08 06:48:03;;;;;;;9.90;2.40;;;;;;;22.56;100.00;103191.19;5247654;28;20029;-72
2022/07/08 06:50:34;;;;;;;11.90;2.53;;;;;;;22.64;100.00;103191.94;5245362;28;20106;-72
2022/07/08 06:53:04;;;;;;;10.45;2.40;;;;;;;23.97;84.11;103190.66;5258924;28;20274;-72
2022/07/08 06:55:35;;;;;;;13.90;2.53;;;;;;;23.77;83.82;103193.22;5244965;28;20025;-71
2022/07/08 06:58:05;;;;;;;8.65;2.17;;;;;;;22.53;100.00;103199.75;5257981;28;20037;-71
2022/07/08 07:00:36;;;;;;;14.32;2.70;;;;;;;22.12;100.00;103198.31;5246660;28;20020;-72
2022/07/08 07:03:06;;;;;;;14.38;3.00;;;;;;;21.98;100.00;103199.94;5256814;28;20107;-72
2022/07/08 07:05:37;;;;;;;13.75;2.70;;;;;;;21.30;100.00;103203.56;5246547;28;20020;-72
2022/07/08 07:08:07;;;;;;;12.88;2.88;;;;;;;20.67;100.00;103199.09;5256786;28;20032;-72
2022/07/08 07:10:38;;;;;;;14.45;3.08;;;;;;;21.02;100.00;103203.19;5261931;28;20036;-72
2022/07/08 07:13:08;;;;;;;14.68;3.90;;;;;;;20.98;100.00;103196.38;5265794;28;20032;-72
2022/07/08 07:15:39;;;;;;;14.27;3.70;;;;;;;21.16;100.00;103209.78;5247700;28;20030;-72
2022/07/08 07:18:09;;;;;;;14.88;3.45;;;;;;;20.72;100.00;103202.13;5244679;28;20099;-71
2022/07/08 07:20:40;;;;;;;15.95;4.82;;;;;;;20.21;100.00;103195.28;5251214;28;20027;-72
2022/07/08 07:23:10;;;;;;;18.65;5.70;;;;;;;20.60;100.00;103189.91;5245488;28;20024;-71
2022/07/08 07:25:41;;;;;;;19.77;4.90;;;;;;;21.58;100.00;103192.09;5258569;28;20371;-71
2022/07/08 07:28:11;;;;;;;18.65;4.30;;;;;;;22.62;100.00;103201.34;5260956;28;20278;-72
2022/07/08 07:30:42;;;;;;;16.20;4.25;;;;;;;23.23;100.00;103199.19;5260452;28;20505;-72
2022/07/08 07:33:12;;;;;;;16.42;4.05;;;;;;;23.20;99.19;103200.44;5262211;28;20028;-72
2022/07/08 07:35:43;;;;;;;12.10;4.28;;;;;;;23.72;94.16;103206.69;5248683;28;20020;-71
2022/07/08 07:38:13;;;;;;;16.83;4.47;;;;;;;23.51;100.00;103202.88;5265185;28;20107;-72
2022/07/08 07:40:44;;;;;;;15.98;4.28;;;;;;;23.07;98.75;103200.28;5269515;28;20482;-72
2022/07/08 07:43:15;;;;;;;12.80;4.18;;;;;;;23.81;92.46;103199.16;5265314;28;20036;-72
2022/07/08 07:45:45;;;;;;;17.88;3.95;;;;;;;24.15;90.91;103198.38;5259984;28;20577;-72
2022/07/08 07:48:16;;;;;;;14.10;3.42;;;;;;;24.73;86.58;103197.06;5257643;28;20024;-72
2022/07/08 07:50:46;;;;;;;17.52;4.10;;;;;;;25.20;80.00;103208.22;5256763;28;20028;-72
2022/07/08 07:53:17;;;;;;;15.55;4.13;;;;;;;24.81;81.63;103215.25;5254598;28;20392;-72
2022/07/08 07:55:47;;;;;;;17.52;4.00;;;;;;;24.76;84.14;103209.53;5255032;28;20032;-72
2022/07/08 07:58:18;;;;;;;11.15;3.25;;;;;;;24.91;83.60;103214.88;5268760;28;20506;-72
2022/07/08 08:00:48;;;;;;;14.88;3.42;;;;;;;25.58;75.25;103206.63;5267280;28;20024;-72
2022/07/08 08:03:19;;;;;;;11.68;3.25;;;;;;;25.23;83.74;103213.31;5237029;28;20114;-73
2022/07/08 08:05:49;;;;;;;10.55;2.90;;;;;;;25.38;81.13;103213.16;5261907;28;20028;-73
2022/07/08 08:08:20;;;;;;;16.20;3.15;;;;;;;25.05;83.37;103212.00;5257754;28;20117;-72
2022/07/08 08:10:51;;;;;;;14.48;3.22;;;;;;;25.10;81.70;103208.63;5261532;28;20028;-72
2022/07/08 08:13:22;;;;;;;13.63;3.03;;;;;;;25.36;77.54;103207.03;5260679;28;20519;-72
2022/07/08 08:15:52;;;;;;;14.35;3.88;;;;;;;26.18;69.58;103211.31;5268754;28;20020;-72
2022/07/08 08:18:23;;;;;;;12.82;3.20;;;;;;;25.85;66.00;103216.81;5268276;28;20031;-72
2022/07/08 08:20:54;;;;;;;15.18;3.80;;;;;;;24.45;83.00;103215.47;5260348;28;20028;-72
2022/07/08 08:23:24;;;;;;;12.77;3.45;;;;;;;25.18;75.74;103219.44;5247812;28;20489;-72
2022/07/08 08:25:56;;;;;;;15.65;3.78;;;;;;;25.17;78.68;103216.91;5246625;28;20028;-72
2022/07/08 08:28:26;;;;;;;12.13;3.38;;;;;;;25.91;69.41;103219.59;5264839;28;20099;-72
2022/07/08 08:30:57;;;;;;;9.40;3.05;;;;;;;24.78;73.30;103216.50;5257888;28;20027;-72
2022/07/08 08:33:27;;;;;;;15.50;3.92;;;;;;;24.21;81.52;103198.44;5265765;28;20235;-72
2022/07/08 08:36:00;;;;;;;21.10;3.50;;;;;;;24.42;82.07;103200.28;5256574;28;20105;-72
2022/07/08 08:38:30;;;;;;;12.40;3.20;;;;;;;24.85;84.28;103199.22;5267015;28;20028;-72
2022/07/08 08:41:01;;;;;;;17.02;3.05;;;;;;;25.68;74.53;103199.88;5255030;28;20378;-72
2022/07/08 08:43:32;;;;;;;11.57;2.72;;;;;;;25.48;75.22;103200.69;5260130;28;20044;-72
2022/07/08 08:46:03;;;;;;;15.50;3.42;;;;;;;24.79;77.39;103193.47;5262522;28;20023;-72
2022/07/08 08:48:37;;;;;;;15.82;3.20;;;;;;;24.55;79.58;103199.53;5248911;28;20150;-72
2022/07/08 08:51:08;;;;;;;8.80;2.90;;;;;;;24.60;80.80;103197.00;5247204;28;20028;-72
2022/07/08 08:53:44;;;;;;;22.88;3.58;;;;;;;24.78;79.42;103196.44;5247135;28;20055;-72
2022/07/08 08:56:16;;;;;;;15.32;3.80;;;;;;;24.93;83.78;103186.16;5252610;28;20028;-72
2022/07/08 08:58:47;;;;;;;13.18;3.53;;;;;;;25.37;76.14;103184.00;5254332;28;20020;-73
2022/07/08 09:01:18;;;;;;;12.98;2.63;;;;;;;25.20;77.54;103189.00;5268058;28;20028;-72
2022/07/08 09:03:48;;;;;;;11.57;3.30;;;;;;;25.30;74.88;103187.56;5240021;28;20502;-72
2022/07/08 09:06:19;;;;;;;11.15;3.72;;;;;;;25.17;78.80;103184.78;5246378;28;20033;-72
2022/07/08 09:08:49;;;;;;;12.88;3.58;;;;;;;25.54;78.62;103182.53;5260605;28;20274;-72
2022/07/08 09:11:20;;;;;;;12.60;2.90;;;;;;;25.72;77.45;103185.50;5246970;28;20024;-73
2022/07/08 09:14:27;;;;;;;11.45;3.03;;;;;;;26.12;71.04;103173.66;5249548;28;20024;-72
2022/07/08 09:17:12;;;;;;;10.65;3.20;;;;;;;26.72;66.01;103177.97;5251474;28;20478;-72
2022/07/08 09:19:48;;;;;;;14.20;3.22;;;;;;;25.98;68.47;103172.81;5253318;28;20442;-72
2022/07/08 09:22:33;;;;;;;14.75;3.17;;;;;;;25.96;66.05;103175.81;5246557;28;20151;-72
2022/07/08 09:25:05;;;;;;;15.55;2.90;;;;;;;25.43;72.53;103174.91;5248050;28;20055;-72
2022/07/08 09:27:35;;;;;;;16.95;3.38;;;;;;;25.48;69.67;103170.47;5258201;28;20081;-72
2022/07/08 09:30:06;;;;;;;14.57;3.08;;;;;;;25.30;74.17;103170.22;5246466;28;20032;-72
2022/07/08 09:32:37;;;;;;;12.95;3.45;;;;;;;25.39;72.46;103174.47;5246656;28;20336;-72
2022/07/08 09:35:12;;;;;;;14.60;3.95;;;;;;;25.32;71.37;103176.38;5250702;28;20028;-72
2022/07/08 09:37:42;;;;;;;11.45;3.42;;;;;;;25.20;71.99;103180.75;5254540;28;20477;-72
2022/07/08 09:40:32;;;;;;;6.95;2.25;;;;;;;25.96;66.76;103167.56;5259579;28;20074;-72
2022/07/08 09:43:11;;;;;;;10.50;2.40;;;;;;;25.86;69.29;103163.53;5246296;28;20047;-72
2022/07/08 09:45:42;;;;;;;13.25;3.58;;;;;;;25.77;67.10;103171.16;5246146;28;20021;-72
2022/07/08 09:48:13;;;;;;;10.82;3.33;;;;;;;25.42;75.13;103178.72;5245747;28;20036;-72
2022/07/08 09:50:46;;;;;;;10.52;3.13;;;;;;;25.70;72.56;103176.59;5245630;28;20027;-72
2022/07/08 09:53:19;;;;;;;8.98;3.05;;;;;;;25.86;74.20;103164.38;5232919;28;20020;-72
2022/07/08 09:55:53;;;;;;;16.38;3.17;;;;;;;26.06;70.64;103167.13;5247283;28;20017;-72
2022/07/08 09:58:27;;;;;;;12.02;3.78;;;;;;;25.64;71.90;103171.09;5257027;28;20386;-72
2022/07/08 10:01:00;;;;;;;11.30;2.87;;;;;;;26.04;69.09;103163.72;5249974;28;20020;-72
2022/07/08 10:03:30;;;;;;;15.70;2.92;;;;;;;26.19;67.69;103167.06;5255198;28;20059;-72
2022/07/08 10:06:02;;;;;;;13.32;3.03;;;;;;;26.12;69.34;103162.66;5245655;28;20021;-72
2022/07/08 10:08:35;;;;;;;17.35;3.47;;;;;;;26.47;66.73;103161.31;5246001;28;20064;-72
2022/07/08 10:11:07;;;;;;;12.25;2.80;;;;;;;25.94;69.47;103160.56;5259057;28;20021;-72
2022/07/08 10:13:39;;;;;;;12.13;2.83;;;;;;;25.91;68.36;103155.50;5259323;28;20073;-72
2022/07/08 10:16:11;;;;;;;14.13;3.63;;;;;;;25.60;73.41;103169.84;5245556;28;20073;-72
2022/07/08 10:18:46;;;;;;;14.63;4.00;;;;;;;25.65;73.41;103172.78;5248515;28;20035;-72
2022/07/08 10:21:21;;;;;;;20.60;3.42;;;;;;;25.75;75.08;103162.25;5248323;28;20021;-72
2022/07/08 10:23:54;;;;;;;9.40;2.72;;;;;;;26.24;71.16;103161.78;5245935;28;20540;-72
2022/07/08 10:26:43;;;;;;;9.57;3.00;;;;;;;26.34;72.21;103158.56;5245533;28;20601;-72
2022/07/08 10:29:13;;;;;;;9.10;2.80;;;;;;;26.40;69.07;103163.19;5243798;28;20032;-72
2022/07/08 10:31:46;;;;;;;7.05;3.33;;;;;;;26.07;75.24;103163.31;5266129;28;20534;-72
2022/07/08 10:34:19;;;;;;;14.60;3.30;;;;;;;25.98;74.30;103162.66;5266409;28;20039;-72
2022/07/08 10:36:53;;;;;;;14.05;4.15;;;;;;;26.32;68.39;103166.22;5261214;28;20020;-72
2022/07/08 10:39:41;;;;;;;20.10;3.80;;;;;;;25.98;69.47;103161.81;5258752;28;20482;-72
2022/07/08 10:42:11;;;;;;;8.80;3.17;;;;;;;25.82;71.94;103158.47;5243185;28;20270;-72
2022/07/08 10:44:43;;;;;;;8.93;3.08;;;;;;;25.94;72.45;103158.66;5252439;28;20374;-72
2022/07/08 10:47:29;;;;;;;12.43;3.25;;;;;;;25.69;71.27;103168.56;5255574;28;20485;-72
2022/07/08 10:50:05;;;;;;;9.63;3.47;;;;;;;25.58;73.73;103168.16;5251503;28;20125;-72
2022/07/08 10:52:51;;;;;;;12.73;3.45;;;;;;;25.85;73.00;103161.84;5266445;28;20024;-72
2022/07/08 10:55:21;;;;;;;12.57;3.03;;;;;;;25.56;73.10;103170.28;5255122;28;20024;-72
2022/07/08 10:57:54;;;;;;;18.17;3.53;;;;;;;25.27;76.16;103159.66;5245677;28;20020;-72
2022/07/08 11:00:26;;;;;;;13.82;3.08;;;;;;;25.45;75.89;103162.66;5257427;28;20107;-72
2022/07/08 11:02:58;;;;;;;19.30;4.07;;;;;;;25.65;76.09;103150.81;5242817;28;20387;-72
2022/07/08 11:05:55;;;;;;;11.63;3.03;;;;;;;25.97;75.38;103160.16;5257301;28;20032;-72
2022/07/08 11:08:26;;;;;;;16.67;2.50;;;;;;;26.29;72.14;103158.38;5270452;28;20048;-72
2022/07/08 11:10:57;;;;;;;14.73;2.80;;;;;;;25.88;69.40;103158.66;5249564;28;20442;-72
2022/07/08 11:13:27;;;;;;;6.95;2.75;;;;;;;25.46;72.14;103163.50;5248644;28;20214;-72
2022/07/08 11:16:00;;;;;;;8.60;2.60;;;;;;;25.54;74.08;103157.78;5262549;28;20040;-72
2022/07/08 11:18:30;;;;;;;7.50;1.77;;;;;;;25.80;74.29;103148.72;5248965;28;20036;-72
2022/07/08 11:21:01;;;;;;;15.35;2.13;;;;;;;25.73;73.86;103161.59;5249422;28;20024;-72
2022/07/08 11:23:32;;;;;;;10.63;1.73;;;;;;;25.85;77.66;103150.84;5248901;28;20435;-72
2022/07/08 11:26:02;;;;;;;9.30;2.50;;;;;;;26.25;73.56;103152.44;5248650;28;20516;-72
2022/07/08 11:28:36;;;;;;;13.70;2.47;;;;;;;26.41;71.60;103153.03;5262637;28;20016;-72
2022/07/08 11:31:18;;;;;;;10.43;2.63;;;;;;;26.49;70.88;103145.44;5249039;28;20074;-72
2022/07/08 11:33:48;;;;;;;12.85;2.67;;;;;;;26.90;72.15;103151.59;5235575;28;20028;-72
2022/07/08 11:36:20;;;;;;;12.70;2.58;;;;;;;26.84;73.01;103153.31;5263370;28;20020;-72